KBNOKBKE

Guest
Details From KBNO - Burns Muni
To KBKE - BAKER CITY MUNI
Flight Number -
Tags generated
Created
Modified
Stats Distance 90 nm / 166 km
Max Altitude 11,000 ft / 3,353 m
Waypoints 4
Social Downloads 0
Likes 0
Share VATSIM

Download

Looking for another format? Having issues loading an existing format? Contact us
Advertisement - Login to hide

Notes

Basic altitude profile: - Ascent Rate: 2500ft/min - Ascent Speed: 250kts - Cruise Altitude: 35000ft - Cruise Speed: 420kts - Descent Rate: 1500ft/min - Descent Speed: 250kts Options: - Use NATs: yes - Use PACOTS: yes - Use low airways: yes - Use high airways: yes

Route

KBNO POTSY V357 OXVEN KBKE

ID Type Via Altitude Latitude Longitude Leg Dist Tot Dist Heading (true) Name
O KBNO APT - 0 ft / 0 m 43.59238˚ -118.95466˚ - 0 nm - Burns Muni
POTSY FIX - 9,100 ft / 2,774 m 44.24591˚ -118.36216˚ 46 nm 46 nm 33° / 33° -
OXVEN FIX V357 (AWY-LO) 11,000 ft / 3,353 m 44.57389˚ -118.05819˚ 23 nm 70 nm 33° / 34° -
O KBKE APT - 0 ft / 0 m 44.83732˚ -117.80912˚ 19 nm 89 nm 34° / 34° BAKER CITY MUNI

Altitude Profile

Advertisement - Login to hide

KBNO

Details ICAO KBNO
Name Burns Muni
Region United States
Timezone America/Los_Angeles (UTC-8.0)
Stats Elevation 4,148 ft / 1,264 m (AMSL)
Location 43.592380° -118.954661°
Runways 2
Magnetic Variation 14.093° E

METAR

KBNO 111953Z AUTO 00000KT 10SM OVC008 M06/M07 A3057 RMK AO2 SLP403 T10611072

Decode

TAF

TAF KBNO 111720Z 1118/1218 VRB03KT 3SM BR BKN003 FM112100 06006KT 6SM HZ FEW005 FM120200 VRB03KT P6SM OVC005

Decode

Departure Runways

ID Width Length Bearing (true) Bearing (mag) Surface Threshold Offset Overrun Length
03 60 ft / 18 m 4,595 ft / 1,401 m 47.88° 33.79° Concrete 600 ft / 183 m 0 ft / 0 m
12 75 ft / 23 m 5,095 ft / 1,553 m 134.60° 120.51° Asphalt 0 ft / 0 m 0 ft / 0 m
21 60 ft / 18 m 4,595 ft / 1,401 m 227.89° 213.80° Concrete 0 ft / 0 m 0 ft / 0 m
30 75 ft / 23 m 5,095 ft / 1,553 m 314.61° 300.52° Asphalt 0 ft / 0 m 0 ft / 0 m

KBKE

Details ICAO KBKE
Name BAKER CITY MUNI
Region United States
Timezone America/Los_Angeles (UTC-8.0)
Stats Elevation 3,373 ft / 1,028 m (AMSL)
Location 44.837325° -117.809116°
Runways 3
Magnetic Variation 14.068° E

METAR

KBKE 111953Z AUTO 21003KT 10SM CLR 00/M06 A3059 RMK AO2 SLP399 T00001061

Decode

TAF

TAF AMD KBKE 111759Z 1118/1218 00000KT P6SM FEW011 FM120800 VRB03KT P6SM BKN015

Decode

Destination Runways

ID Width Length Bearing (true) Bearing (mag) Surface Threshold Offset Overrun Length
08 140 ft / 43 m 3,989 ft / 1,216 m 96.83° 82.76° Asphalt 140 ft / 43 m 0 ft / 0 m
13 100 ft / 30 m 5,092 ft / 1,552 m 141.62° 127.55° Asphalt 0 ft / 0 m 0 ft / 0 m
17 75 ft / 23 m 4,363 ft / 1,330 m 181.19° 167.12° Asphalt 0 ft / 0 m 0 ft / 0 m
26 140 ft / 43 m 3,989 ft / 1,216 m 276.84° 262.77° Asphalt 190 ft / 58 m 0 ft / 0 m
31 100 ft / 30 m 5,092 ft / 1,552 m 321.62° 307.55° Asphalt 0 ft / 0 m 0 ft / 0 m
35 75 ft / 23 m 4,363 ft / 1,330 m 1.19° 347.12° Asphalt 395 ft / 120 m 0 ft / 0 m